Time;durP1;ratioP1;P1;durP2;ratioP2;P2;SDS_P1;SDS_P2;PMS_P1;PMS_P2;Temp;Humidity;BMP_temperature;BMP_pressure;BME280_temperature;BME280_humidity;BME280_pressure;Samples;Min_cycle;Max_cycle;Signal;HPM_P1;HPM_P2
2020/12/20 00:00:08;;;;;;;10.02;4.65;;;;;;;;;;5031923;28;20130;-73
2020/12/20 00:02:34;;;;;;;8.60;4.80;;;;;;;;;;5032197;28;20083;-74
2020/12/20 00:04:59;;;;;;;16.67;4.90;;;;;;;;;;5032348;28;20021;-73
2020/12/20 00:07:24;;;;;;;9.52;4.82;;;;;;;;;;5032348;28;20029;-73
2020/12/20 00:09:49;;;;;;;9.23;4.22;;;;;;;;;;5032595;28;20498;-74
2020/12/20 00:12:14;;;;;;;7.30;4.60;;;;;;;;;;5032453;28;20041;-73
2020/12/20 00:14:40;;;;;;;8.43;4.43;;;;;;;;;;5031962;28;20021;-73
2020/12/20 00:17:09;;;;;;;9.27;4.78;;;;;;;;;;5032150;28;20311;-73
2020/12/20 00:19:36;;;;;;;9.55;4.05;;;;;;;;;;5031322;28;20053;-74
2020/12/20 00:22:02;;;;;;;10.50;4.15;;;;;;;;;;5013832;28;20493;-73
2020/12/20 00:24:28;;;;;;;11.63;4.75;;;;;;;;;;5031852;28;20163;-73
2020/12/20 00:26:53;;;;;;;10.32;3.88;;;;;;;;;;5030909;28;20047;-73
2020/12/20 00:29:19;;;;;;;7.28;3.70;;;;;;;;;;5031777;28;20059;-73
2020/12/20 00:31:44;;;;;;;8.95;4.47;;;;;;;;;;5031776;28;20017;-73
2020/12/20 00:34:09;;;;;;;12.38;4.50;;;;;;;;;;5031604;28;20026;-73
2020/12/20 00:36:34;;;;;;;8.77;2.78;;;;;;;;;;5032779;28;20112;-73
2020/12/20 00:39:00;;;;;;;7.30;4.05;;;;;;;;;;5032582;28;20504;-73
2020/12/20 00:41:25;;;;;;;6.68;2.53;;;;;;;;;;5032377;28;20037;-73
2020/12/20 00:43:51;;;;;;;3.30;2.05;;;;;;;;;;5031770;28;20025;-74
2020/12/20 00:46:16;;;;;;;8.57;2.63;;;;;;;;;;5031628;28;20021;-73
2020/12/20 00:48:42;;;;;;;5.57;2.90;;;;;;;;;;5031718;28;20043;-73
2020/12/20 00:51:08;;;;;;;8.63;3.15;;;;;;;;;;5013244;28;20264;-73
2020/12/20 00:53:33;;;;;;;9.63;3.92;;;;;;;;;;5030573;28;20101;-73
2020/12/20 00:55:58;;;;;;;8.25;3.10;;;;;;;;;;5011402;28;20087;-74
2020/12/20 00:58:23;;;;;;;10.45;4.75;;;;;;;;;;5029170;28;20051;-73
2020/12/20 01:00:49;;;;;;;10.05;4.75;;;;;;;;;;5029730;28;20112;-73
2020/12/20 01:03:16;;;;;;;7.90;4.23;;;;;;;;;;5029970;28;20021;-73
2020/12/20 01:05:41;;;;;;;4.25;2.17;;;;;;;;;;5030112;28;20306;-73
2020/12/20 01:08:09;;;;;;;4.82;3.35;;;;;;;;;;5030728;28;20010;-73
2020/12/20 01:10:34;;;;;;;5.75;3.67;;;;;;;;;;5030903;28;20036;-74
2020/12/20 01:12:59;;;;;;;9.53;5.03;;;;;;;;;;5012421;28;20040;-73
2020/12/20 01:15:29;;;;;;;7.70;4.90;;;;;;;;;;5029856;28;20847;-74
2020/12/20 01:17:54;;;;;;;8.25;4.82;;;;;;;;;;5030038;28;20260;-74
2020/12/20 01:20:19;;;;;;;9.07;4.53;;;;;;;;;;5029111;28;20416;-73
2020/12/20 01:22:45;;;;;;;6.13;3.80;;;;;;;;;;5030288;28;20013;-74
2020/12/20 01:25:11;;;;;;;12.27;4.97;;;;;;;;;;5029672;28;20017;-73
2020/12/20 01:27:36;;;;;;;11.10;5.03;;;;;;;;;;5030082;28;20287;-73
2020/12/20 01:30:01;;;;;;;5.33;3.10;;;;;;;;;;5030067;28;20017;-73
2020/12/20 01:32:26;;;;;;;10.90;4.75;;;;;;;;;;5029125;28;20307;-73
2020/12/20 01:34:51;;;;;;;12.45;5.32;;;;;;;;;;5031905;28;20033;-73
2020/12/20 01:37:17;;;;;;;7.63;3.92;;;;;;;;;;5029598;28;20151;-73
2020/12/20 01:39:42;;;;;;;8.63;4.40;;;;;;;;;;5029582;28;20036;-73
2020/12/20 01:42:07;;;;;;;11.30;4.87;;;;;;;;;;5030217;28;20272;-73
2020/12/20 01:44:33;;;;;;;11.48;5.05;;;;;;;;;;5029584;28;20297;-73
2020/12/20 01:46:59;;;;;;;4.00;2.58;;;;;;;;;;5029739;28;20096;-73
2020/12/20 01:49:25;;;;;;;9.57;3.28;;;;;;;;;;5029492;28;20579;-73
2020/12/20 01:54:27;;;;;;;7.88;3.15;;;;;;;;;;5075756;28;20361;-71
2020/12/20 01:56:53;;;;;;;7.90;4.18;;;;;;;;;;5075495;28;20111;-71
2020/12/20 01:59:18;;;;;;;7.05;4.13;;;;;;;;;;5086366;28;20021;-72
2020/12/20 02:01:43;;;;;;;12.95;4.65;;;;;;;;;;5074720;28;20404;-71
2020/12/20 02:04:09;;;;;;;14.88;4.63;;;;;;;;;;5080167;28;20020;-71
2020/12/20 02:06:34;;;;;;;8.60;4.85;;;;;;;;;;5077873;28;20024;-71
2020/12/20 02:08:59;;;;;;;10.27;4.72;;;;;;;;;;5067556;28;20070;-71
2020/12/20 02:11:24;;;;;;;11.40;4.95;;;;;;;;;;5071099;28;20016;-71
2020/12/20 02:13:50;;;;;;;13.45;5.40;;;;;;;;;;5079619;28;20056;-71
2020/12/20 02:16:16;;;;;;;9.85;5.80;;;;;;;;;;5070475;28;20465;-71
2020/12/20 02:18:41;;;;;;;12.98;5.32;;;;;;;;;;5069518;28;20480;-71
2020/12/20 02:21:10;;;;;;;7.85;3.70;;;;;;;;;;5061504;28;20017;-71
2020/12/20 02:23:39;;;;;;;8.52;4.35;;;;;;;;;;5071430;28;20106;-71
2020/12/20 02:26:04;;;;;;;10.95;4.97;;;;;;;;;;5068744;28;20020;-71
2020/12/20 02:28:29;;;;;;;8.07;3.83;;;;;;;;;;5072201;28;20379;-71
2020/12/20 02:30:54;;;;;;;11.53;4.87;;;;;;;;;;5077627;28;20270;-71
2020/12/20 02:33:19;;;;;;;6.77;3.93;;;;;;;;;;5053054;28;20635;-72
2020/12/20 02:35:44;;;;;;;8.83;3.47;;;;;;;;;;5061602;28;20270;-71
2020/12/20 02:38:10;;;;;;;7.18;4.68;;;;;;;;;;5055433;28;20711;-72
2020/12/20 02:40:36;;;;;;;9.48;4.72;;;;;;;;;;5065876;28;20016;-71
2020/12/20 02:43:01;;;;;;;15.05;5.28;;;;;;;;;;5067095;28;20020;-72
2020/12/20 02:45:26;;;;;;;10.15;4.38;;;;;;;;;;5080600;28;20031;-71
2020/12/20 02:47:51;;;;;;;11.50;5.60;;;;;;;;;;5083342;28;20086;-71
2020/12/20 02:50:16;;;;;;;11.30;5.20;;;;;;;;;;5073691;28;20314;-71
2020/12/20 02:52:41;;;;;;;7.57;3.70;;;;;;;;;;5070701;28;20032;-71
2020/12/20 02:55:07;;;;;;;12.00;2.90;;;;;;;;;;5070609;28;20398;-71
2020/12/20 02:57:32;;;;;;;3.97;2.77;;;;;;;;;;5069916;28;20259;-71
2020/12/20 02:59:57;;;;;;;8.27;4.67;;;;;;;;;;5066210;28;20728;-71
2020/12/20 03:02:22;;;;;;;11.50;4.17;;;;;;;;;;5086059;28;20279;-72
2020/12/20 03:04:47;;;;;;;10.85;6.50;;;;;;;;;;5063549;28;20271;-75
2020/12/20 03:07:12;;;;;;;14.83;4.87;;;;;;;;;;5061475;28;20110;-71
2020/12/20 03:09:38;;;;;;;16.40;5.07;;;;;;;;;;5053310;28;20263;-71
2020/12/20 03:12:03;;;;;;;9.13;5.10;;;;;;;;;;5053308;28;20294;-71
2020/12/20 03:14:28;;;;;;;8.83;3.87;;;;;;;;;;5062156;28;20263;-71
2020/12/20 03:16:53;;;;;;;10.33;3.93;;;;;;;;;;5064917;28;20857;-71
2020/12/20 03:19:18;;;;;;;6.63;3.57;;;;;;;;;;5064646;28;20354;-71
2020/12/20 03:21:43;;;;;;;11.97;5.43;;;;;;;;;;5057086;28;20739;-71
2020/12/20 03:24:08;;;;;;;8.65;4.68;;;;;;;;;;5065138;28;20286;-71
2020/12/20 03:26:34;;;;;;;8.40;4.97;;;;;;;;;;5052636;28;20051;-71
2020/12/20 03:28:59;;;;;;;10.52;4.25;;;;;;;;;;5070390;28;20039;-70
2020/12/20 03:31:24;;;;;;;6.37;3.20;;;;;;;;;;5054356;28;20580;-71
2020/12/20 03:33:49;;;;;;;15.00;4.55;;;;;;;;;;5051391;28;20310;-71
2020/12/20 03:36:14;;;;;;;9.07;5.00;;;;;;;;;;5053967;28;20020;-71
2020/12/20 03:38:40;;;;;;;13.38;4.97;;;;;;;;;;5064881;28;20675;-72
2020/12/20 03:41:05;;;;;;;10.57;5.60;;;;;;;;;;5052490;28;20545;-71
2020/12/20 03:43:30;;;;;;;6.17;2.97;;;;;;;;;;5052523;28;20082;-71
2020/12/20 03:45:55;;;;;;;9.57;4.97;;;;;;;;;;5051626;28;20259;-70
2020/12/20 03:48:20;;;;;;;11.43;5.43;;;;;;;;;;5063464;28;20285;-71
2020/12/20 03:50:46;;;;;;;12.50;4.85;;;;;;;;;;5054831;28;20025;-71
2020/12/20 03:53:11;;;;;;;11.73;5.03;;;;;;;;;;5061019;28;20024;-71
2020/12/20 03:55:36;;;;;;;13.10;4.13;;;;;;;;;;5062357;28;20020;-71
2020/12/20 03:58:01;;;;;;;7.00;3.77;;;;;;;;;;5053654;28;20275;-71
2020/12/20 04:00:26;;;;;;;11.70;4.88;;;;;;;;;;5069679;28;20377;-73
2020/12/20 04:02:51;;;;;;;12.47;6.00;;;;;;;;;;5054260;28;20484;-71
2020/12/20 04:05:17;;;;;;;7.85;4.00;;;;;;;;;;5064871;28;20282;-72
2020/12/20 04:07:42;;;;;;;15.07;5.40;;;;;;;;;;5060363;28;20041;-71
2020/12/20 04:10:08;;;;;;;12.50;6.13;;;;;;;;;;5051774;28;20028;-71
2020/12/20 04:12:33;;;;;;;18.13;5.28;;;;;;;;;;5052139;28;20025;-71
2020/12/20 04:14:58;;;;;;;10.60;3.47;;;;;;;;;;5060186;28;20381;-71
2020/12/20 04:17:23;;;;;;;9.88;4.47;;;;;;;;;;5068272;28;20341;-71
2020/12/20 04:19:49;;;;;;;7.30;5.00;;;;;;;;;;5061490;28;20017;-71
2020/12/20 04:22:14;;;;;;;11.27;5.35;;;;;;;;;;5057719;28;20337;-71
2020/12/20 04:24:39;;;;;;;12.53;5.00;;;;;;;;;;5051618;28;20100;-72
2020/12/20 04:27:04;;;;;;;9.33;5.47;;;;;;;;;;5066347;28;21015;-71
2020/12/20 04:29:29;;;;;;;9.20;5.00;;;;;;;;;;5063902;28;20267;-73
2020/12/20 04:31:54;;;;;;;11.03;6.20;;;;;;;;;;5056578;28;20252;-71
2020/12/20 04:34:20;;;;;;;9.30;5.00;;;;;;;;;;5054039;28;20294;-74
2020/12/20 04:36:45;;;;;;;9.32;5.32;;;;;;;;;;5057969;28;20032;-71
2020/12/20 04:39:10;;;;;;;12.07;5.17;;;;;;;;;;5058199;28;20037;-72
2020/12/20 04:41:35;;;;;;;10.63;6.00;;;;;;;;;;5071616;28;20296;-71
2020/12/20 04:44:00;;;;;;;15.65;6.38;;;;;;;;;;5056486;28;20313;-72
2020/12/20 04:46:27;;;;;;;9.60;5.03;;;;;;;;;;5050885;28;20409;-71
2020/12/20 04:48:52;;;;;;;10.65;4.45;;;;;;;;;;5050620;28;20912;-71
2020/12/20 04:51:18;;;;;;;8.65;4.57;;;;;;;;;;5050558;28;20033;-71
2020/12/20 04:53:43;;;;;;;9.30;4.85;;;;;;;;;;5050707;28;20029;-74
2020/12/20 04:56:09;;;;;;;13.35;6.57;;;;;;;;;;5050484;28;20020;-73
2020/12/20 04:58:35;;;;;;;12.00;4.80;;;;;;;;;;5050671;28;20103;-73
2020/12/20 05:01:00;;;;;;;15.95;5.53;;;;;;;;;;5050124;28;20110;-73
2020/12/20 05:03:26;;;;;;;11.93;5.43;;;;;;;;;;5050278;28;20028;-73
2020/12/20 05:05:51;;;;;;;12.05;5.97;;;;;;;;;;5049927;28;20047;-74
2020/12/20 05:08:18;;;;;;;9.98;4.88;;;;;;;;;;5050223;28;20021;-73
2020/12/20 05:10:43;;;;;;;13.57;6.25;;;;;;;;;;5058682;28;20436;-73
2020/12/20 05:13:09;;;;;;;10.40;5.87;;;;;;;;;;5050298;28;20025;-73
2020/12/20 05:15:34;;;;;;;12.70;5.72;;;;;;;;;;5049730;28;20279;-73
2020/12/20 05:18:13;;;;;;;10.48;5.57;;;;;;;;;;5050516;28;20079;-73
2020/12/20 05:20:41;;;;;;;14.05;5.85;;;;;;;;;;5049271;28;20048;-73
2020/12/20 05:23:07;;;;;;;12.38;5.30;;;;;;;;;;5050144;28;20424;-74
2020/12/20 05:25:32;;;;;;;10.95;4.97;;;;;;;;;;5049864;28;20029;-73
2020/12/20 05:28:04;;;;;;;12.90;5.90;;;;;;;;;;5049247;28;20496;-73
2020/12/20 05:30:30;;;;;;;9.30;5.05;;;;;;;;;;5049678;28;20053;-73
2020/12/20 05:32:55;;;;;;;17.33;6.00;;;;;;;;;;5049788;28;20067;-73
2020/12/20 05:35:21;;;;;;;9.55;6.13;;;;;;;;;;5049914;28;20267;-73
2020/12/20 05:37:46;;;;;;;10.20;5.25;;;;;;;;;;5049863;28;20051;-74
2020/12/20 05:40:23;;;;;;;10.15;5.53;;;;;;;;;;5056215;28;20066;-73
2020/12/20 05:42:57;;;;;;;4.50;3.50;;;;;;;;;;5052491;28;20482;-73
2020/12/20 05:45:23;;;;;;;16.13;6.22;;;;;;;;;;5050248;28;20061;-73
2020/12/20 05:47:48;;;;;;;9.05;4.90;;;;;;;;;;5049849;28;20082;-73
2020/12/20 05:50:13;;;;;;;14.20;6.43;;;;;;;;;;5048801;28;20029;-73
2020/12/20 05:52:39;;;;;;;8.27;4.32;;;;;;;;;;5049471;28;20049;-73
2020/12/20 05:55:11;;;;;;;10.02;4.70;;;;;;;;;;5049751;28;20488;-74
2020/12/20 05:57:36;;;;;;;13.15;6.07;;;;;;;;;;5049740;28;20017;-73
2020/12/20 06:00:03;;;;;;;6.07;3.22;;;;;;;;;;5049271;28;20028;-73
2020/12/20 06:02:28;;;;;;;8.45;4.97;;;;;;;;;;5049668;28;20021;-73
2020/12/20 06:04:54;;;;;;;12.95;6.10;;;;;;;;;;5049528;28;20350;-74
2020/12/20 06:07:24;;;;;;;9.38;4.45;;;;;;;;;;5049974;28;20509;-73
2020/12/20 06:09:54;;;;;;;12.00;7.13;;;;;;;;;;5049746;28;20036;-74
2020/12/20 06:12:20;;;;;;;6.18;3.70;;;;;;;;;;5070165;28;20066;-74
2020/12/20 06:14:46;;;;;;;11.25;5.60;;;;;;;;;;5054114;28;20039;-74
2020/12/20 06:17:14;;;;;;;13.02;6.80;;;;;;;;;;5049531;28;20017;-73
2020/12/20 06:19:47;;;;;;;13.25;6.97;;;;;;;;;;5049391;28;20442;-73
2020/12/20 06:22:17;;;;;;;8.73;5.55;;;;;;;;;;5047780;28;20028;-74
2020/12/20 06:24:45;;;;;;;8.50;4.28;;;;;;;;;;5049238;28;20036;-73
2020/12/20 06:27:12;;;;;;;11.80;6.50;;;;;;;;;;5049064;28;20123;-73
2020/12/20 06:29:38;;;;;;;13.30;6.53;;;;;;;;;;5048907;28;20021;-74
2020/12/20 06:32:04;;;;;;;12.40;6.57;;;;;;;;;;5049020;28;20094;-73
2020/12/20 06:34:29;;;;;;;17.42;6.82;;;;;;;;;;5049286;28;20087;-73
2020/12/20 06:36:55;;;;;;;12.87;3.40;;;;;;;;;;5048847;28;20537;-73
2020/12/20 06:39:36;;;;;;;10.32;5.57;;;;;;;;;;5049703;28;20263;-74
2020/12/20 06:42:01;;;;;;;13.25;6.60;;;;;;;;;;5067295;28;20496;-73
2020/12/20 06:44:27;;;;;;;17.73;6.20;;;;;;;;;;5071723;28;20081;-73
2020/12/20 06:46:52;;;;;;;11.98;6.38;;;;;;;;;;5053152;28;20017;-73
2020/12/20 06:49:36;;;;;;;18.52;7.25;;;;;;;;;;5052914;28;20389;-73
2020/12/20 06:52:16;;;;;;;13.85;5.90;;;;;;;;;;5052612;28;20024;-74
2020/12/20 06:54:42;;;;;;;13.32;6.65;;;;;;;;;;5053178;28;20021;-73
2020/12/20 06:57:10;;;;;;;11.18;6.78;;;;;;;;;;5052931;28;20046;-73
2020/12/20 06:59:43;;;;;;;12.85;6.38;;;;;;;;;;5052831;28;20025;-74
2020/12/20 07:02:08;;;;;;;12.75;8.07;;;;;;;;;;5052199;28;20020;-74
2020/12/20 07:04:40;;;;;;;11.45;5.97;;;;;;;;;;5052419;28;20024;-74
2020/12/20 07:07:10;;;;;;;9.85;5.40;;;;;;;;;;5052520;28;20025;-73
2020/12/20 07:09:35;;;;;;;10.52;5.60;;;;;;;;;;5056422;28;20477;-73
2020/12/20 07:12:00;;;;;;;9.10;5.30;;;;;;;;;;5056730;28;20040;-73
2020/12/20 07:14:33;;;;;;;10.55;6.65;;;;;;;;;;5052960;28;20325;-73
2020/12/20 07:16:58;;;;;;;14.13;7.10;;;;;;;;;;5053127;28;20009;-74
2020/12/20 07:19:24;;;;;;;13.83;6.00;;;;;;;;;;5052734;28;20480;-73
2020/12/20 07:21:53;;;;;;;10.95;6.20;;;;;;;;;;5052248;28;20803;-73
2020/12/20 07:24:19;;;;;;;19.88;8.93;;;;;;;;;;5052860;28;20481;-74
2020/12/20 07:26:45;;;;;;;12.32;7.15;;;;;;;;;;5053079;28;20095;-73
2020/12/20 07:29:11;;;;;;;14.32;5.18;;;;;;;;;;5051419;28;20247;-73
2020/12/20 07:31:36;;;;;;;15.98;7.20;;;;;;;;;;5053041;28;20535;-73
2020/12/20 07:34:02;;;;;;;18.40;7.72;;;;;;;;;;5052333;28;20088;-73
2020/12/20 07:36:28;;;;;;;11.13;5.70;;;;;;;;;;5052769;28;20022;-73
2020/12/20 07:38:53;;;;;;;12.98;6.20;;;;;;;;;;5052754;28;20013;-73
2020/12/20 07:41:19;;;;;;;15.32;7.32;;;;;;;;;;5052776;28;20021;-74
2020/12/20 07:43:45;;;;;;;15.80;7.03;;;;;;;;;;5053249;28;20016;-73
2020/12/20 07:46:10;;;;;;;12.18;6.22;;;;;;;;;;5052749;28;20033;-73
2020/12/20 07:48:36;;;;;;;12.23;5.78;;;;;;;;;;5052810;28;20368;-73
2020/12/20 07:51:08;;;;;;;11.27;6.57;;;;;;;;;;5052330;28;20013;-73
2020/12/20 07:53:33;;;;;;;15.90;8.00;;;;;;;;;;5080920;22;20123;-67
2020/12/20 07:55:58;;;;;;;14.88;7.18;;;;;;;;;;5066246;28;20541;-67
2020/12/20 07:58:24;;;;;;;21.10;8.00;;;;;;;;;;5070788;28;20016;-66
2020/12/20 08:01:00;;;;;;;14.70;8.68;;;;;;;;;;5072444;28;20021;-66
2020/12/20 08:03:25;;;;;;;10.40;4.95;;;;;;;;;;5072331;28;20027;-67
2020/12/20 08:05:51;;;;;;;13.23;7.77;;;;;;;;;;5071719;28;20388;-66
2020/12/20 08:08:21;;;;;;;14.20;7.72;;;;;;;;;;5071743;28;20319;-66
2020/12/20 08:10:46;;;;;;;13.85;7.10;;;;;;;;;;5065658;28;20388;-66
2020/12/20 08:13:11;;;;;;;10.10;5.20;;;;;;;;;;5071355;28;20028;-67
2020/12/20 08:15:36;;;;;;;15.93;8.23;;;;;;;;;;5072354;28;20016;-67
2020/12/20 08:18:01;;;;;;;21.27;8.37;;;;;;;;;;5072458;28;20275;-67
2020/12/20 08:20:27;;;;;;;17.67;9.27;;;;;;;;;;5072250;28;20262;-67
2020/12/20 08:22:53;;;;;;;16.83;8.25;;;;;;;;;;5072324;28;20078;-67
2020/12/20 08:25:18;;;;;;;15.40;8.52;;;;;;;;;;5072150;28;20030;-67
2020/12/20 08:27:44;;;;;;;15.35;8.63;;;;;;;;;;5072533;28;20025;-67
2020/12/20 08:30:11;;;;;;;19.13;9.38;;;;;;;;;;5071742;28;20023;-67
2020/12/20 08:32:42;;;;;;;14.65;9.07;;;;;;;;;;5071655;28;20438;-66
2020/12/20 08:35:15;;;;;;;17.50;9.02;;;;;;;;;;5071809;28;20012;-66
2020/12/20 08:37:41;;;;;;;14.13;8.77;;;;;;;;;;5071866;28;20023;-66
2020/12/20 08:40:12;;;;;;;15.85;9.23;;;;;;;;;;5071627;28;20384;-66
2020/12/20 08:42:38;;;;;;;10.80;5.20;;;;;;;;;;5071577;28;20149;-66
2020/12/20 08:45:13;;;;;;;19.33;9.10;;;;;;;;;;5071570;28;20543;-66
2020/12/20 08:47:39;;;;;;;17.45;8.98;;;;;;;;;;5071440;28;20019;-67
2020/12/20 08:50:04;;;;;;;20.50;9.93;;;;;;;;;;5071228;28;20426;-67
2020/12/20 08:52:30;;;;;;;14.20;8.82;;;;;;;;;;5071310;28;20012;-67
2020/12/20 08:54:56;;;;;;;20.73;9.68;;;;;;;;;;5071342;28;20047;-66
2020/12/20 08:57:32;;;;;;;24.77;12.85;;;;;;;;;;5070890;28;20017;-67
2020/12/20 09:00:10;;;;;;;17.10;9.55;;;;;;;;;;5070691;28;20418;-67
2020/12/20 09:02:35;;;;;;;14.52;7.22;;;;;;;;;;5070308;28;20012;-67
2020/12/20 09:05:04;;;;;;;17.00;8.63;;;;;;;;;;5070385;28;20023;-67
2020/12/20 09:07:32;;;;;;;15.70;6.53;;;;;;;;;;5071120;28;20023;-67
2020/12/20 09:10:07;;;;;;;15.90;8.68;;;;;;;;;;5070861;28;20070;-67
2020/12/20 09:12:33;;;;;;;14.48;8.18;;;;;;;;;;5070996;28;20016;-67
2020/12/20 09:15:06;;;;;;;9.95;5.00;;;;;;;;;;5079880;28;20039;-67
2020/12/20 09:17:32;;;;;;;14.48;8.23;;;;;;;;;;5071146;28;20016;-67
2020/12/20 09:19:58;;;;;;;17.38;6.57;;;;;;;;;;5070772;28;20031;-67
2020/12/20 09:22:36;;;;;;;14.65;8.93;;;;;;;;;;5071120;28;20107;-67
2020/12/20 09:25:02;;;;;;;11.65;6.47;;;;;;;;;;5070180;28;20016;-67
2020/12/20 09:27:27;;;;;;;10.70;5.32;;;;;;;;;;5070955;28;20025;-67
2020/12/20 09:29:52;;;;;;;13.00;7.97;;;;;;;;;;5070655;28;20035;-67
2020/12/20 09:32:17;;;;;;;13.45;8.27;;;;;;;;;;5062206;28;20685;-67
2020/12/20 09:34:42;;;;;;;16.17;8.70;;;;;;;;;;5070813;28;20044;-67
2020/12/20 09:37:08;;;;;;;16.98;8.02;;;;;;;;;;5070873;28;20480;-67
2020/12/20 09:39:53;;;;;;;14.87;7.73;;;;;;;;;;5070333;28;20098;-67
2020/12/20 09:42:18;;;;;;;15.82;9.05;;;;;;;;;;5076647;28;20312;-67
2020/12/20 09:44:44;;;;;;;14.90;7.93;;;;;;;;;;5073887;28;20016;-66
2020/12/20 09:47:10;;;;;;;17.73;7.68;;;;;;;;;;5071672;28;20338;-68
2020/12/20 09:49:35;;;;;;;13.63;8.20;;;;;;;;;;5069145;28;20032;-67
2020/12/20 09:52:02;;;;;;;13.70;7.53;;;;;;;;;;5070073;28;20503;-67
2020/12/20 09:54:28;;;;;;;15.25;5.45;;;;;;;;;;5069363;28;21096;-66
2020/12/20 09:56:53;;;;;;;14.52;7.95;;;;;;;;;;5066681;28;20075;-68
2020/12/20 09:59:19;;;;;;;16.07;8.70;;;;;;;;;;5057277;28;20020;-67
2020/12/20 10:01:44;;;;;;;10.95;6.20;;;;;;;;;;5069820;28;20246;-67
2020/12/20 10:04:09;;;;;;;14.17;7.13;;;;;;;;;;5068947;28;20047;-67
2020/12/20 10:06:34;;;;;;;16.33;7.93;;;;;;;;;;5069193;28;20282;-67
2020/12/20 10:09:00;;;;;;;16.67;6.73;;;;;;;;;;5069064;28;20329;-68
2020/12/20 10:11:26;;;;;;;17.90;7.78;;;;;;;;;;5069553;28;20255;-68
2020/12/20 10:13:51;;;;;;;17.98;7.90;;;;;;;;;;5069481;28;20025;-66
2020/12/20 10:16:20;;;;;;;15.60;7.15;;;;;;;;;;5073567;28;20043;-67
2020/12/20 10:18:45;;;;;;;14.35;6.28;;;;;;;;;;5072474;28;20104;-67
2020/12/20 10:21:14;;;;;;;13.48;6.40;;;;;;;;;;5066011;28;20092;-67
2020/12/20 10:23:39;;;;;;;14.15;7.63;;;;;;;;;;5054127;28;20025;-67
2020/12/20 10:26:07;;;;;;;12.32;6.22;;;;;;;;;;5068846;28;20024;-67
2020/12/20 10:28:32;;;;;;;16.80;6.65;;;;;;;;;;5073898;28;20025;-68
2020/12/20 10:30:57;;;;;;;15.07;7.10;;;;;;;;;;5073252;28;20032;-67
2020/12/20 10:33:22;;;;;;;14.27;6.57;;;;;;;;;;5073652;28;20316;-69
2020/12/20 10:35:47;;;;;;;11.63;6.47;;;;;;;;;;5073723;28;20255;-67
2020/12/20 10:38:13;;;;;;;12.02;4.90;;;;;;;;;;5074176;28;20254;-67
2020/12/20 10:40:38;;;;;;;10.17;5.90;;;;;;;;;;5073789;28;20415;-67
2020/12/20 10:43:03;;;;;;;17.05;6.78;;;;;;;;;;5073809;28;20282;-67
2020/12/20 10:45:28;;;;;;;12.13;5.60;;;;;;;;;;5073844;28;20259;-67
2020/12/20 10:47:53;;;;;;;13.40;6.43;;;;;;;;;;5073005;28;20039;-67
2020/12/20 10:50:19;;;;;;;10.77;6.63;;;;;;;;;;5093306;28;20270;-67
2020/12/20 10:52:44;;;;;;;13.10;6.07;;;;;;;;;;5093807;28;20381;-67
2020/12/20 10:55:09;;;;;;;8.23;3.67;;;;;;;;;;5093558;28;20036;-68
2020/12/20 10:57:35;;;;;;;14.70;5.90;;;;;;;;;;5093645;28;20020;-68
2020/12/20 11:00:00;;;;;;;11.80;6.03;;;;;;;;;;5093216;28;20012;-67
2020/12/20 11:02:25;;;;;;;5.18;3.22;;;;;;;;;;5093582;28;20016;-67
2020/12/20 11:04:50;;;;;;;12.70;5.70;;;;;;;;;;5080606;28;20069;-67
2020/12/20 11:07:16;;;;;;;13.27;5.32;;;;;;;;;;5072868;28;20270;-67
2020/12/20 11:09:41;;;;;;;12.88;4.90;;;;;;;;;;5073007;28;20021;-67
2020/12/20 11:12:06;;;;;;;10.25;4.38;;;;;;;;;;5073112;28;20028;-67
2020/12/20 11:14:32;;;;;;;6.60;3.20;;;;;;;;;;5072929;28;20092;-67
2020/12/20 11:16:58;;;;;;;12.52;4.30;;;;;;;;;;5073131;28;20020;-67
2020/12/20 11:19:23;;;;;;;13.50;5.05;;;;;;;;;;5071788;28;20093;-67
2020/12/20 11:21:51;;;;;;;15.17;5.57;;;;;;;;;;5073080;28;20533;-68
2020/12/20 11:24:17;;;;;;;12.98;4.15;;;;;;;;;;5072959;28;20266;-68
2020/12/20 11:26:46;;;;;;;14.88;5.00;;;;;;;;;;5072430;28;20020;-68
2020/12/20 11:29:13;;;;;;;13.65;5.60;;;;;;;;;;5072674;28;20028;-67
2020/12/20 11:31:38;;;;;;;7.68;3.90;;;;;;;;;;5072241;28;20016;-68
2020/12/20 11:34:04;;;;;;;14.82;5.93;;;;;;;;;;5072492;28;20028;-68
2020/12/20 11:36:29;;;;;;;10.40;5.72;;;;;;;;;;5072919;28;20445;-67
2020/12/20 11:38:54;;;;;;;16.38;6.63;;;;;;;;;;5072982;28;20065;-68
2020/12/20 11:41:23;;;;;;;8.85;4.10;;;;;;;;;;5071460;28;20491;-68
2020/12/20 11:43:48;;;;;;;7.50;3.92;;;;;;;;;;5072826;28;20067;-68
2020/12/20 11:46:14;;;;;;;14.25;5.80;;;;;;;;;;5072630;28;20025;-68
2020/12/20 11:48:39;;;;;;;10.63;4.40;;;;;;;;;;5072125;28;20028;-68
2020/12/20 11:51:04;;;;;;;10.65;5.05;;;;;;;;;;5068896;28;20025;-68
2020/12/20 11:53:29;;;;;;;9.18;5.03;;;;;;;;;;5071437;28;20146;-67
2020/12/20 11:55:54;;;;;;;17.55;5.57;;;;;;;;;;5071945;28;20019;-67
2020/12/20 11:58:19;;;;;;;7.83;2.97;;;;;;;;;;5071738;28;20029;-67
2020/12/20 12:00:45;;;;;;;12.45;4.65;;;;;;;;;;5071156;28;20730;-67
2020/12/20 12:03:13;;;;;;;10.85;5.45;;;;;;;;;;5072029;28;20024;-67
2020/12/20 12:05:38;;;;;;;11.23;4.63;;;;;;;;;;5070912;28;20096;-67
2020/12/20 12:08:04;;;;;;;13.00;4.63;;;;;;;;;;5071896;28;20104;-67
2020/12/20 12:10:29;;;;;;;14.90;5.57;;;;;;;;;;5070925;28;20040;-67
2020/12/20 12:12:54;;;;;;;11.37;4.77;;;;;;;;;;5071330;28;20472;-67
2020/12/20 12:15:19;;;;;;;8.93;3.93;;;;;;;;;;5071517;28;20259;-67
2020/12/20 12:17:45;;;;;;;10.82;4.80;;;;;;;;;;5071144;28;20647;-69
2020/12/20 12:20:10;;;;;;;10.60;4.93;;;;;;;;;;5070979;28;20016;-67
2020/12/20 12:22:35;;;;;;;15.43;4.30;;;;;;;;;;5071249;28;20029;-67
2020/12/20 12:25:00;;;;;;;10.37;4.43;;;;;;;;;;5071258;28;20356;-67
2020/12/20 12:27:25;;;;;;;9.30;4.83;;;;;;;;;;5071237;28;20346;-68
2020/12/20 12:29:50;;;;;;;19.75;3.92;;;;;;;;;;5070903;28;20902;-67
2020/12/20 12:32:16;;;;;;;13.80;5.07;;;;;;;;;;5070491;28;20255;-68
2020/12/20 12:34:41;;;;;;;14.45;4.40;;;;;;;;;;5071081;28;20025;-67
2020/12/20 12:37:06;;;;;;;16.85;5.65;;;;;;;;;;5070397;28;20283;-68
2020/12/20 12:39:31;;;;;;;12.77;5.10;;;;;;;;;;5070466;28;20048;-67
2020/12/20 12:41:56;;;;;;;7.63;3.22;;;;;;;;;;5071225;28;20020;-68
2020/12/20 12:44:22;;;;;;;13.02;4.28;;;;;;;;;;5070414;28;20040;-69
2020/12/20 12:46:47;;;;;;;12.15;4.88;;;;;;;;;;5070816;28;20016;-68
2020/12/20 12:49:12;;;;;;;12.17;3.90;;;;;;;;;;5070104;28;20025;-68
2020/12/20 12:51:37;;;;;;;9.63;4.40;;;;;;;;;;5070472;28;20263;-67
2020/12/20 12:54:02;;;;;;;10.40;3.50;;;;;;;;;;5070625;28;20385;-67
2020/12/20 12:56:28;;;;;;;14.33;5.27;;;;;;;;;;5070298;28;20267;-68
2020/12/20 12:58:53;;;;;;;8.23;4.23;;;;;;;;;;5070385;28;20258;-67
2020/12/20 13:01:18;;;;;;;14.75;4.40;;;;;;;;;;5070402;28;20255;-68
2020/12/20 13:03:44;;;;;;;19.38;4.40;;;;;;;;;;5070143;28;20016;-67
2020/12/20 13:06:14;;;;;;;15.43;3.63;;;;;;;;;;5069846;28;20016;-67
2020/12/20 13:08:39;;;;;;;;;;;;;;;;;;5070561;28;20028;-67
2020/12/20 13:11:05;;;;;;;23.38;5.10;;;;;;;;;;5070059;28;19916;-68
2020/12/20 13:13:30;;;;;;;9.33;3.73;;;;;;;;;;5070179;28;20020;-67
2020/12/20 13:15:55;;;;;;;7.23;3.93;;;;;;;;;;5070349;28;20349;-68
2020/12/20 13:18:20;;;;;;;18.23;4.17;;;;;;;;;;5070180;28;20337;-67
2020/12/20 13:20:45;;;;;;;16.17;4.20;;;;;;;;;;5070166;28;20294;-68
2020/12/20 13:23:10;;;;;;;11.80;3.60;;;;;;;;;;5070600;28;20306;-67
2020/12/20 13:25:35;;;;;;;11.88;3.35;;;;;;;;;;5070465;28;20337;-67
2020/12/20 13:28:01;;;;;;;4.43;2.27;;;;;;;;;;5070420;28;20023;-67
2020/12/20 13:30:26;;;;;;;10.93;3.63;;;;;;;;;;5069574;28;20294;-68
2020/12/20 13:32:51;;;;;;;10.73;4.00;;;;;;;;;;5069969;28;20023;-67
2020/12/20 13:35:16;;;;;;;15.02;3.58;;;;;;;;;;5070208;28;20278;-67
2020/12/20 13:37:42;;;;;;;11.48;3.60;;;;;;;;;;5070096;28;20533;-69
2020/12/20 13:40:07;;;;;;;10.15;4.15;;;;;;;;;;5070291;28;20103;-67
2020/12/20 13:42:32;;;;;;;10.73;4.37;;;;;;;;;;5069806;28;20020;-69
2020/12/20 13:44:58;;;;;;;19.03;4.43;;;;;;;;;;5069792;28;20608;-67
2020/12/20 13:47:23;;;;;;;13.30;4.00;;;;;;;;;;5071402;28;20663;-68
2020/12/20 13:49:48;;;;;;;12.05;4.72;;;;;;;;;;5071504;28;20020;-68
2020/12/20 13:52:13;;;;;;;9.40;4.13;;;;;;;;;;5062280;28;20514;-68
2020/12/20 13:54:39;;;;;;;18.43;5.17;;;;;;;;;;5061377;22;20316;-72
2020/12/20 13:57:04;;;;;;;14.73;3.93;;;;;;;;;;5029437;28;20354;-72
2020/12/20 13:59:29;;;;;;;12.20;4.10;;;;;;;;;;5029089;28;20252;-72
2020/12/20 14:01:54;;;;;;;24.17;4.53;;;;;;;;;;5029406;28;20256;-73
2020/12/20 14:04:19;;;;;;;11.63;3.93;;;;;;;;;;5026607;28;20264;-72
2020/12/20 14:06:46;;;;;;;14.38;4.20;;;;;;;;;;5025097;28;20277;-73
2020/12/20 14:09:11;;;;;;;12.75;4.18;;;;;;;;;;5026124;28;20044;-73
2020/12/20 14:11:36;;;;;;;22.50;4.13;;;;;;;;;;5016965;28;20454;-73
2020/12/20 14:14:01;;;;;;;8.80;3.75;;;;;;;;;;5011478;28;20022;-73
2020/12/20 14:16:27;;;;;;;14.05;4.10;;;;;;;;;;5014390;28;20338;-73
2020/12/20 14:18:52;;;;;;;12.30;4.03;;;;;;;;;;5028659;28;20100;-73
2020/12/20 14:21:17;;;;;;;9.50;3.63;;;;;;;;;;5015602;28;20060;-73
2020/12/20 14:23:43;;;;;;;13.47;4.50;;;;;;;;;;5022697;28;20493;-73
2020/12/20 14:26:13;;;;;;;9.02;3.47;;;;;;;;;;5015154;28;20264;-73
2020/12/20 14:28:38;;;;;;;11.45;3.90;;;;;;;;;;5020119;28;20029;-73